This is the latest recevied weather packets stored in our database for station/object NA9VY-8. If no packets are shown the sender has not sent any weather packets the latest 10 day(s).
| Time | Temp. | Humidity | Pressure | Rain* | Wind** | Luminosity | Snow |
|---|---|---|---|---|---|---|---|
| 1778094571 | 14.44° C | 71% | 1017.3 hPa | 0 mm | - | 308 W/m² | - |
| 1778094268 | 13.89° C | 74% | 1017.3 hPa | 0 mm | - | 297 W/m² | - |
| 1778093965 | 13.89° C | 70% | 1017.4 hPa | 0 mm | - | 292 W/m² | - |
| 1778093662 | 13.89° C | 70% | 1017.3 hPa | 0 mm | - | 252 W/m² | - |
| 1778093359 | 13.89° C | 72% | 1017.3 hPa | 0 mm | - | 208 W/m² | - |
| 1778093056 | 13.89° C | 74% | 1017.3 hPa | 0 mm | - | 177 W/m² | - |
| 1778092754 | 13.89° C | 72% | 1017.2 hPa | 0 mm | - | 172 W/m² | - |
| 1778092449 | 13.33° C | 70% | 1017.5 hPa | 0 mm | - | 185 W/m² | - |
| 1778092146 | 13.89° C | 71% | 1017.3 hPa | 0 mm | - | 224 W/m² | - |
| 1778091843 | 13.33° C | 69% | 1017.3 hPa | 0 mm | - | 262 W/m² | - |
| 1778091540 | 13.89° C | 69% | 1017.2 hPa | 0 mm | - | 245 W/m² | - |
| 1778091238 | 13.89° C | 67% | 1017 hPa | 0 mm | - | 278 W/m² | - |
| 1778090935 | 13.33° C | 67% | 1017.1 hPa | 0 mm | - | 256 W/m² | - |
| 1778090631 | 13.89° C | 66% | 1017.1 hPa | 0 mm | - | 350 W/m² | - |
| 1778090328 | 13.33° C | 67% | 1017.3 hPa | 0 mm | - | 306 W/m² | - |
| 1778090024 | 13.33° C | 69% | 1017.3 hPa | 0 mm | - | 257 W/m² | - |
| 1778089721 | 13.89° C | 68% | 1017.3 hPa | 0 mm | - | 225 W/m² | - |
| 1778089419 | 13.89° C | 68% | 1017.4 hPa | 0 mm | - | 253 W/m² | - |
| 1778089117 | 13.89° C | 69% | 1017.6 hPa | 0 mm | - | 261 W/m² | - |
| 1778088813 | 13.33° C | 69% | 1017.5 hPa | 0 mm | - | 243 W/m² | - |
| 1778088510 | 13.33° C | 68% | 1017.6 hPa | 0 mm | - | 245 W/m² | - |
| 1778088207 | 13.33° C | 71% | 1018 hPa | 0 mm | - | 198 W/m² | - |
| 1778087904 | 12.78° C | 70% | 1017.8 hPa | 0 mm | - | 219 W/m² | - |
| 1778087601 | 13.33° C | 66% | 1017.8 hPa | 0 mm | - | 273 W/m² | - |
| 1778087299 | 13.89° C | 68% | 1017.6 hPa | 0 mm | - | 280 W/m² | - |
* Rain latest hour (hover to see other rain measurements)
** Current wind speed in m/s (hover to see current wind gust speed)